Time;durP1;ratioP1;P1;durP2;ratioP2;P2;SDS_P1;SDS_P2;PMS_P1;PMS_P2;Temp;Humidity;BMP_temperature;BMP_pressure;BME280_temperature;BME280_humidity;BME280_pressure;Samples;Min_cycle;Max_cycle;Signal;HPM_P1;HPM_P2
2023/06/05 00:00:28;;;;;;;;;;;18.30;63.10;;;;;;4992412;28;19914;-71
2023/06/05 00:02:53;;;;;;;;;;;18.30;63.40;;;;;;4992145;28;20415;-70
2023/06/05 00:05:19;;;;;;;;;;;18.30;63.20;;;;;;5006945;28;19917;-72
2023/06/05 00:07:45;;;;;;;;;;;18.20;63.40;;;;;;4992443;28;20385;-71
2023/06/05 00:10:11;;;;;;;;;;;18.20;63.60;;;;;;4992285;28;20391;-71
2023/06/05 00:12:37;;;;;;;;;;;18.20;63.50;;;;;;4991928;28;20290;-71
2023/06/05 00:15:03;;;;;;;;;;;18.20;63.60;;;;;;4990520;28;19917;-71
2023/06/05 00:17:30;;;;;;;;;;;18.10;63.80;;;;;;4990676;28;19910;-71
2023/06/05 00:19:58;;;;;;;;;;;18.10;63.80;;;;;;4992306;28;19921;-71
2023/06/05 00:22:24;;;;;;;;;;;18.10;63.80;;;;;;4991955;28;19918;-71
2023/06/05 00:24:50;;;;;;;;;;;18.10;63.80;;;;;;4990762;28;19918;-71
2023/06/05 00:27:15;;;;;;;;;;;18.10;64.00;;;;;;4992163;28;19914;-71
2023/06/05 00:29:41;;;;;;;;;;;18.00;63.90;;;;;;4992093;28;19914;-71
2023/06/05 00:32:06;;;;;;;;;;;18.00;64.10;;;;;;4991376;28;19923;-71
2023/06/05 00:34:32;;;;;;;;;;;17.90;64.10;;;;;;4991924;28;19918;-71
2023/06/05 00:36:58;;;;;;;;;;;17.90;64.10;;;;;;4999706;28;19922;-71
2023/06/05 00:39:23;;;;;;;;;;;17.90;64.30;;;;;;5093242;28;19912;-71
2023/06/05 00:41:49;;;;;;;;;;;17.90;64.30;;;;;;5092913;28;19966;-71
2023/06/05 00:44:14;;;;;;;;;;;17.80;64.10;;;;;;5093325;28;20604;-71
2023/06/05 00:46:40;;;;;;;;;;;17.80;64.50;;;;;;5094529;28;19974;-70
2023/06/05 00:49:07;;;;;;;;;;;17.80;64.60;;;;;;5094090;28;19912;-70
2023/06/05 00:51:32;;;;;;;;;;;17.80;64.60;;;;;;5090630;28;19935;-71
2023/06/05 00:53:59;;;;;;;;;;;17.70;64.60;;;;;;5091000;28;19915;-71
2023/06/05 00:56:24;;;;;;;;;;;17.70;64.30;;;;;;4992848;28;20000;-71
2023/06/05 00:58:52;;;;;;;;;;;17.70;64.80;;;;;;4988329;28;20366;-71
2023/06/05 01:01:20;;;;;;;;;;;17.70;64.80;;;;;;4988650;28;19914;-71
2023/06/05 01:03:47;;;;;;;;;;;17.60;64.90;;;;;;4988400;28;19914;-72
2023/06/05 01:06:13;;;;;;;;;;;17.60;64.90;;;;;;4988558;28;20680;-71
2023/06/05 01:08:41;;;;;;;;;;;17.60;64.90;;;;;;4988602;28;19914;-71
2023/06/05 01:11:14;;;;;;;;;;;17.50;64.90;;;;;;4988443;28;19917;-71
2023/06/05 01:13:41;;;;;;;;;;;17.50;65.00;;;;;;4986915;28;20539;-71
2023/06/05 01:16:09;;;;;;;;;;;17.50;65.10;;;;;;4988379;28;19924;-71
2023/06/05 01:18:40;;;;;;;;;;;17.50;65.20;;;;;;4988339;28;19949;-71
2023/06/05 01:21:13;;;;;;;;;;;17.40;65.30;;;;;;4988574;28;20290;-71
2023/06/05 01:23:43;;;;;;;;;;;17.40;65.30;;;;;;4988134;28;19922;-71
2023/06/05 01:26:12;;;;;;;;;;;17.40;65.10;;;;;;4988169;28;19935;-71
2023/06/05 01:28:38;;;;;;;;;;;17.40;65.10;;;;;;5000311;28;19917;-71
2023/06/05 01:31:14;;;;;;;;;;;17.30;65.20;;;;;;5002119;28;19955;-71
2023/06/05 01:33:45;;;;;;;;;;;17.30;65.50;;;;;;4971501;28;19956;-71
2023/06/05 01:36:11;;;;;;;;;;;17.30;65.30;;;;;;4968909;28;19957;-71
2023/06/05 01:38:38;;;;;;;;;;;17.20;65.90;;;;;;4983285;28;19914;-71
2023/06/05 01:41:04;;;;;;;;;;;17.20;65.70;;;;;;4988536;28;19916;-71
2023/06/05 01:43:30;;;;;;;;;;;17.20;66.40;;;;;;4987801;28;20317;-70
2023/06/05 01:45:56;;;;;;;;;;;17.20;65.80;;;;;;4987022;28;19967;-71
2023/06/05 01:48:23;;;;;;;;;;;17.10;65.70;;;;;;4988156;28;19963;-71
2023/06/05 01:50:49;;;;;;;;;;;17.10;66.90;;;;;;4988137;28;19910;-71
2023/06/05 01:53:16;;;;;;;;;;;17.10;66.00;;;;;;4987664;28;19925;-71
2023/06/05 01:55:42;;;;;;;;;;;17.10;65.90;;;;;;4986484;28;20024;-71
2023/06/05 01:58:07;;;;;;;;;;;17.00;66.10;;;;;;4987711;28;20000;-71
2023/06/05 02:00:35;;;;;;;;;;;17.00;66.00;;;;;;4987753;28;19953;-71
2023/06/05 02:03:00;;;;;;;;;;;17.00;66.30;;;;;;5001668;28;19918;-71
2023/06/05 02:05:29;;;;;;;;;;;16.90;66.40;;;;;;4987687;28;19955;-71
2023/06/05 02:07:58;;;;;;;;;;;16.90;66.60;;;;;;4987769;28;19910;-71
2023/06/05 02:10:23;;;;;;;;;;;16.90;66.60;;;;;;4987660;28;19914;-71
2023/06/05 02:12:49;;;;;;;;;;;16.90;66.70;;;;;;4987422;28;19914;-71
2023/06/05 02:15:14;;;;;;;;;;;16.90;66.60;;;;;;4986314;28;19921;-71
2023/06/05 02:17:45;;;;;;;;;;;16.80;66.70;;;;;;4987449;28;19936;-71
2023/06/05 02:20:12;;;;;;;;;;;16.80;66.90;;;;;;4987535;28;19913;-71
2023/06/05 02:22:37;;;;;;;;;;;16.80;66.60;;;;;;4987082;28;19921;-71
2023/06/05 02:25:05;;;;;;;;;;;16.70;67.00;;;;;;4987420;28;19979;-71
2023/06/05 02:27:30;;;;;;;;;;;16.80;66.80;;;;;;4987286;28;19967;-71
2023/06/05 02:29:56;;;;;;;;;;;16.70;67.10;;;;;;4987414;28;19910;-71
2023/06/05 02:32:25;;;;;;;;;;;16.70;66.90;;;;;;4985478;28;20675;-71
2023/06/05 02:34:51;;;;;;;;;;;16.70;67.00;;;;;;4987354;28;19921;-71
2023/06/05 02:37:17;;;;;;;;;;;16.70;67.30;;;;;;4987275;28;19914;-71
2023/06/05 02:39:42;;;;;;;;;;;16.60;67.30;;;;;;4987128;28;19914;-71
2023/06/05 02:42:08;;;;;;;;;;;16.60;67.30;;;;;;4986858;28;19909;-71
2023/06/05 02:44:33;;;;;;;;;;;16.60;67.40;;;;;;5059683;28;19916;-71
2023/06/05 02:46:59;;;;;;;;;;;16.50;67.40;;;;;;5089361;28;19967;-71
2023/06/05 02:49:24;;;;;;;;;;;16.50;67.80;;;;;;5089559;28;19952;-71
2023/06/05 02:51:50;;;;;;;;;;;16.50;67.20;;;;;;5089185;28;19912;-71
2023/06/05 02:54:16;;;;;;;;;;;16.50;67.40;;;;;;5081582;28;20007;-71
2023/06/05 02:56:43;;;;;;;;;;;16.50;67.30;;;;;;5088717;28;19951;-71
2023/06/05 02:59:09;;;;;;;;;;;16.40;67.70;;;;;;5087845;28;19919;-71
2023/06/05 03:01:35;;;;;;;;;;;16.40;67.80;;;;;;5087528;28;19916;-71
2023/06/05 03:04:02;;;;;;;;;;;16.40;68.10;;;;;;5080936;28;19912;-71
2023/06/05 03:06:34;;;;;;;;;;;16.40;67.80;;;;;;4985472;28;19937;-71
2023/06/05 03:09:00;;;;;;;;;;;16.30;67.90;;;;;;4986843;28;20000;-71
2023/06/05 03:11:26;;;;;;;;;;;16.30;67.60;;;;;;4985585;28;20024;-71
2023/06/05 03:13:52;;;;;;;;;;;16.30;68.10;;;;;;4984445;28;20036;-71
2023/06/05 03:16:17;;;;;;;;;;;16.30;68.10;;;;;;4985444;28;19926;-71
2023/06/05 03:18:43;;;;;;;;;;;16.20;67.70;;;;;;4986490;28;20609;-71
2023/06/05 03:21:10;;;;;;;;;;;16.20;68.80;;;;;;4986436;28;19913;-71
2023/06/05 03:23:35;;;;;;;;;;;16.20;68.30;;;;;;4985855;28;19930;-71
2023/06/05 03:26:02;;;;;;;;;;;16.20;68.80;;;;;;4985575;28;19913;-71
2023/06/05 03:28:28;;;;;;;;;;;16.10;68.50;;;;;;4997308;28;19921;-71
2023/06/05 03:30:54;;;;;;;;;;;16.10;68.10;;;;;;4978590;28;19910;-71
2023/06/05 03:33:19;;;;;;;;;;;16.10;68.50;;;;;;4981613;28;19914;-71
2023/06/05 03:35:48;;;;;;;;;;;16.10;68.70;;;;;;4995059;28;20034;-71
2023/06/05 03:38:14;;;;;;;;;;;16.10;69.00;;;;;;5002430;28;19941;-71
2023/06/05 03:40:40;;;;;;;;;;;16.00;68.80;;;;;;5006223;28;20010;-71
2023/06/05 03:43:06;;;;;;;;;;;16.00;68.70;;;;;;5005955;28;20394;-71
2023/06/05 03:45:32;;;;;;;;;;;16.00;69.00;;;;;;5006195;28;19913;-71
2023/06/05 03:47:59;;;;;;;;;;;16.00;68.60;;;;;;5006198;28;19913;-71
2023/06/05 03:50:25;;;;;;;;;;;15.90;68.70;;;;;;5005951;28;19917;-71
2023/06/05 03:52:52;;;;;;;;;;;16.00;69.00;;;;;;5005768;28;19910;-71
2023/06/05 03:55:21;;;;;;;;;;;15.90;68.70;;;;;;5001978;28;19921;-71
2023/06/05 03:57:47;;;;;;;;;;;16.00;68.80;;;;;;4986059;28;19913;-71
2023/06/05 04:00:14;;;;;;;;;;;15.90;69.00;;;;;;4986045;28;20632;-71
2023/06/05 04:02:40;;;;;;;;;;;15.90;70.10;;;;;;4985838;28;20739;-71
2023/06/05 04:05:06;;;;;;;;;;;15.90;68.70;;;;;;4984810;28;20051;-71
2023/06/05 04:07:31;;;;;;;;;;;15.90;68.70;;;;;;4985034;28;20287;-71
2023/06/05 04:09:57;;;;;;;;;;;15.80;68.80;;;;;;4985975;28;20279;-71
2023/06/05 04:12:22;;;;;;;;;;;15.80;68.90;;;;;;4985918;28;20290;-71
2023/06/05 04:14:48;;;;;;;;;;;15.80;69.40;;;;;;4984674;28;19914;-71
2023/06/05 04:17:13;;;;;;;;;;;15.80;69.00;;;;;;4986075;28;19920;-71
2023/06/05 04:19:40;;;;;;;;;;;15.80;69.10;;;;;;4986187;28;19914;-70
2023/06/05 04:22:05;;;;;;;;;;;15.80;69.50;;;;;;4985653;28;19924;-70
2023/06/05 04:24:31;;;;;;;;;;;15.70;69.00;;;;;;4986016;28;19912;-71
2023/06/05 04:26:59;;;;;;;;;;;15.70;68.90;;;;;;4987712;28;19914;-71
2023/06/05 04:29:24;;;;;;;;;;;15.70;68.90;;;;;;4989229;28;19920;-71
2023/06/05 04:31:50;;;;;;;;;;;15.70;69.20;;;;;;4977213;28;19996;-71
2023/06/05 04:34:17;;;;;;;;;;;15.70;68.80;;;;;;4969854;28;19911;-71
2023/06/05 04:36:43;;;;;;;;;;;15.70;69.00;;;;;;4969846;28;19914;-71
2023/06/05 04:39:14;;;;;;;;;;;15.70;69.20;;;;;;4969687;28;20561;-71
2023/06/05 04:41:44;;;;;;;;;;;15.70;69.30;;;;;;4969504;28;19915;-70
2023/06/05 04:44:16;;;;;;;;;;;15.60;68.80;;;;;;4969773;28;20494;-71
2023/06/05 04:46:43;;;;;;;;;;;15.60;68.80;;;;;;4969625;28;19914;-71
2023/06/05 04:49:12;;;;;;;;;;;15.60;69.00;;;;;;4969775;28;19910;-71
2023/06/05 04:51:38;;;;;;;;;;;15.60;69.00;;;;;;4968123;28;19910;-71
2023/06/05 04:54:05;;;;;;;;;;;15.60;69.10;;;;;;5008676;28;19908;-71
2023/06/05 04:56:32;;;;;;;;;;;15.60;68.90;;;;;;4989418;28;19921;-71
2023/06/05 04:58:59;;;;;;;;;;;15.60;69.00;;;;;;4988829;28;19929;-71
2023/06/05 05:01:25;;;;;;;;;;;15.60;68.90;;;;;;4986859;28;20366;-71
2023/06/05 05:03:51;;;;;;;;;;;15.60;69.00;;;;;;5013741;28;20027;-72
2023/06/05 05:06:17;;;;;;;;;;;15.60;69.10;;;;;;5070846;28;19923;-72
2023/06/05 05:08:47;;;;;;;;;;;15.60;69.20;;;;;;5061932;28;19914;-71
2023/06/05 05:11:13;;;;;;;;;;;15.60;69.20;;;;;;4988410;28;19917;-71
2023/06/05 05:13:39;;;;;;;;;;;15.60;69.00;;;;;;4987995;28;19913;-71
2023/06/05 05:16:04;;;;;;;;;;;15.60;69.00;;;;;;4988060;28;19917;-71
2023/06/05 05:18:30;;;;;;;;;;;15.60;69.00;;;;;;4988216;28;19914;-71
2023/06/05 05:20:55;;;;;;;;;;;15.60;69.00;;;;;;4982210;28;19910;-71
2023/06/05 05:23:21;;;;;;;;;;;15.60;69.00;;;;;;4968787;28;19922;-71
2023/06/05 05:25:47;;;;;;;;;;;15.60;69.00;;;;;;4968786;28;19949;-71
2023/06/05 05:28:14;;;;;;;;;;;15.60;69.20;;;;;;4969884;28;20348;-71
2023/06/05 05:30:40;;;;;;;;;;;15.60;69.10;;;;;;4998903;28;20659;-72
2023/06/05 05:33:06;;;;;;;;;;;15.60;69.10;;;;;;4968270;28;19914;-71
2023/06/05 05:35:31;;;;;;;;;;;15.60;69.10;;;;;;4968168;28;19934;-71
2023/06/05 05:37:57;;;;;;;;;;;15.60;69.10;;;;;;4968684;28;19972;-71
2023/06/05 05:40:22;;;;;;;;;;;15.60;69.10;;;;;;4968666;28;20271;-71
2023/06/05 05:42:48;;;;;;;;;;;15.60;69.20;;;;;;4968509;28;20005;-71
2023/06/05 05:45:13;;;;;;;;;;;15.60;69.10;;;;;;4968727;28;19991;-71
2023/06/05 05:47:40;;;;;;;;;;;15.60;69.20;;;;;;4968593;28;20379;-71
2023/06/05 05:50:06;;;;;;;;;;;15.60;69.10;;;;;;4968202;28;19924;-71
2023/06/05 05:52:31;;;;;;;;;;;15.60;69.10;;;;;;4990106;28;19913;-71
2023/06/05 05:54:58;;;;;;;;;;;15.60;69.20;;;;;;4986449;28;20079;-71
2023/06/05 05:57:24;;;;;;;;;;;15.60;69.20;;;;;;4987325;28;19921;-71
2023/06/05 05:59:50;;;;;;;;;;;15.60;69.20;;;;;;4987488;28;19960;-71
2023/06/05 06:02:16;;;;;;;;;;;15.60;69.40;;;;;;4987421;28;19949;-71
2023/06/05 06:04:43;;;;;;;;;;;15.60;69.20;;;;;;4986185;28;19910;-71
2023/06/05 06:07:09;;;;;;;;;;;15.60;69.20;;;;;;4986116;28;19935;-71
2023/06/05 06:09:35;;;;;;;;;;;15.70;69.30;;;;;;4987536;28;19971;-71
2023/06/05 06:12:05;;;;;;;;;;;15.60;69.20;;;;;;4987207;28;19914;-71
2023/06/05 06:14:31;;;;;;;;;;;15.70;69.20;;;;;;4987439;28;19932;-71
2023/06/05 06:16:57;;;;;;;;;;;15.60;69.80;;;;;;4987387;28;20652;-71
2023/06/05 06:19:23;;;;;;;;;;;15.60;69.20;;;;;;4987265;28;19914;-72
2023/06/05 06:21:51;;;;;;;;;;;15.70;69.30;;;;;;4986772;28;20530;-71
2023/06/05 06:24:19;;;;;;;;;;;15.70;69.40;;;;;;4986740;28;19914;-71
2023/06/05 06:26:46;;;;;;;;;;;15.70;69.30;;;;;;4985749;28;19967;-71
2023/06/05 06:29:13;;;;;;;;;;;15.70;69.30;;;;;;4985799;28;19933;-71
2023/06/05 06:31:38;;;;;;;;;;;15.70;69.40;;;;;;4986126;28;19993;-71
2023/06/05 06:34:04;;;;;;;;;;;15.70;69.20;;;;;;4985573;28;20025;-71
2023/06/05 06:36:30;;;;;;;;;;;15.70;69.30;;;;;;4987130;28;20696;-71
2023/06/05 06:38:55;;;;;;;;;;;15.70;69.30;;;;;;4987104;28;19913;-71
2023/06/05 06:41:21;;;;;;;;;;;15.70;69.20;;;;;;4987116;28;19945;-72
2023/06/05 06:43:46;;;;;;;;;;;15.80;69.20;;;;;;4985377;28;20774;-71
2023/06/05 06:46:12;;;;;;;;;;;15.80;69.30;;;;;;4985543;28;19991;-71
2023/06/05 06:48:38;;;;;;;;;;;15.80;69.30;;;;;;4985849;28;20012;-71
2023/06/05 06:51:04;;;;;;;;;;;15.80;69.30;;;;;;4987100;28;19945;-71
2023/06/05 06:53:29;;;;;;;;;;;15.80;69.20;;;;;;4986834;28;19953;-71
2023/06/05 06:55:55;;;;;;;;;;;15.80;69.20;;;;;;4984994;28;20004;-71
2023/06/05 06:58:20;;;;;;;;;;;15.90;69.20;;;;;;4986655;28;20350;-71
2023/06/05 07:00:47;;;;;;;;;;;15.80;69.20;;;;;;4985543;28;19910;-71
2023/06/05 07:03:12;;;;;;;;;;;15.80;69.20;;;;;;4986775;28;19914;-71
2023/06/05 07:05:38;;;;;;;;;;;15.90;69.20;;;;;;4997665;28;20275;-71
2023/06/05 07:08:03;;;;;;;;;;;15.90;69.20;;;;;;4987054;28;19948;-71
2023/06/05 07:10:29;;;;;;;;;;;15.90;69.10;;;;;;4987017;28;20006;-71
2023/06/05 07:12:54;;;;;;;;;;;15.90;69.00;;;;;;4985223;28;20282;-71
2023/06/05 07:15:20;;;;;;;;;;;15.90;69.00;;;;;;4986946;28;19918;-71
2023/06/05 07:17:46;;;;;;;;;;;15.90;69.00;;;;;;4986803;28;20429;-71
2023/06/05 07:20:12;;;;;;;;;;;15.90;69.00;;;;;;4989387;28;20000;-71
2023/06/05 07:22:42;;;;;;;;;;;15.90;68.80;;;;;;5006005;28;19922;-71
2023/06/05 07:25:09;;;;;;;;;;;15.90;68.90;;;;;;5006318;28;19914;-71
2023/06/05 07:27:35;;;;;;;;;;;16.00;69.10;;;;;;5006202;28;20528;-71
2023/06/05 07:30:01;;;;;;;;;;;16.00;68.90;;;;;;4988486;28;19914;-71
2023/06/05 07:32:26;;;;;;;;;;;16.00;68.80;;;;;;4984761;28;19914;-71
2023/06/05 07:34:52;;;;;;;;;;;16.00;68.90;;;;;;4986595;28;19939;-71
2023/06/05 07:37:18;;;;;;;;;;;16.00;68.70;;;;;;4986713;28;19917;-71
2023/06/05 07:39:43;;;;;;;;;;;16.10;68.80;;;;;;4985303;28;19920;-71
2023/06/05 07:42:09;;;;;;;;;;;16.10;68.80;;;;;;4984784;28;20482;-71
2023/06/05 07:44:34;;;;;;;;;;;16.10;68.70;;;;;;4986537;28;19968;-71
2023/06/05 07:47:00;;;;;;;;;;;16.10;68.60;;;;;;4985527;28;19914;-71
2023/06/05 07:49:29;;;;;;;;;;;16.10;68.60;;;;;;4986645;28;19933;-71
2023/06/05 07:51:55;;;;;;;;;;;16.20;68.60;;;;;;4999276;28;19918;-71
2023/06/05 07:54:21;;;;;;;;;;;16.20;68.50;;;;;;4986203;28;20354;-71
2023/06/05 07:56:50;;;;;;;;;;;16.20;68.50;;;;;;4985919;28;20036;-71
2023/06/05 07:59:16;;;;;;;;;;;16.20;68.30;;;;;;4986979;28;19914;-71
2023/06/05 08:01:42;;;;;;;;;;;16.20;68.40;;;;;;4989577;28;19920;-71
2023/06/05 08:04:07;;;;;;;;;;;16.30;68.40;;;;;;4988261;28;19921;-71
2023/06/05 08:06:37;;;;;;;;;;;16.30;68.40;;;;;;4989661;28;19945;-71
2023/06/05 08:09:03;;;;;;;;;;;16.30;68.30;;;;;;4989524;28;19993;-71
2023/06/05 08:11:28;;;;;;;;;;;16.30;68.30;;;;;;4989694;28;20050;-71
2023/06/05 08:13:57;;;;;;;;;;;16.30;68.10;;;;;;4987371;28;19910;-71
2023/06/05 08:16:22;;;;;;;;;;;16.40;68.20;;;;;;4989484;28;19917;-71
2023/06/05 08:18:48;;;;;;;;;;;16.40;68.20;;;;;;4988929;28;19914;-71
2023/06/05 08:21:13;;;;;;;;;;;16.40;68.00;;;;;;4989335;28;20330;-71
2023/06/05 08:23:39;;;;;;;;;;;16.40;68.10;;;;;;4988714;28;19922;-71
2023/06/05 08:26:10;;;;;;;;;;;16.50;68.10;;;;;;4989395;28;19918;-71
2023/06/05 08:28:40;;;;;;;;;;;16.50;68.00;;;;;;4989309;28;19914;-71
2023/06/05 08:31:05;;;;;;;;;;;16.50;67.90;;;;;;4987664;28;19957;-71
2023/06/05 08:33:34;;;;;;;;;;;16.60;68.00;;;;;;4988738;28;20002;-71
2023/06/05 08:35:59;;;;;;;;;;;16.60;67.80;;;;;;4987559;28;20015;-71
2023/06/05 08:38:25;;;;;;;;;;;16.60;67.80;;;;;;4988864;28;20278;-71
2023/06/05 08:41:01;;;;;;;;;;;16.70;67.80;;;;;;4989210;28;20673;-70
2023/06/05 08:43:27;;;;;;;;;;;16.70;67.70;;;;;;4988520;28;20343;-72
2023/06/05 08:45:53;;;;;;;;;;;16.70;67.70;;;;;;4989166;28;19914;-71
2023/06/05 08:48:21;;;;;;;;;;;16.80;67.60;;;;;;4989177;28;19910;-71
2023/06/05 08:50:47;;;;;;;;;;;16.70;67.50;;;;;;4989332;28;20316;-71
2023/06/05 08:53:16;;;;;;;;;;;16.80;67.50;;;;;;4989199;28;19925;-71
2023/06/05 08:55:42;;;;;;;;;;;16.80;67.50;;;;;;4988556;28;19925;-71
2023/06/05 08:58:08;;;;;;;;;;;16.90;67.40;;;;;;4987453;28;19914;-71
2023/06/05 09:00:34;;;;;;;;;;;16.90;67.30;;;;;;5026992;28;20003;-70
2023/06/05 09:03:00;;;;;;;;;;;16.90;67.20;;;;;;5089902;28;19943;-71
2023/06/05 09:05:25;;;;;;;;;;;17.00;67.50;;;;;;5023359;28;19984;-71
2023/06/05 09:07:51;;;;;;;;;;;17.00;67.10;;;;;;4988959;28;19936;-71
2023/06/05 09:10:23;;;;;;;;;;;17.10;67.00;;;;;;4988461;28;19909;-71
2023/06/05 09:12:53;;;;;;;;;;;17.10;67.00;;;;;;4988269;28;20453;-71
2023/06/05 09:15:23;;;;;;;;;;;17.20;66.90;;;;;;4988834;28;19945;-70
2023/06/05 09:18:11;;;;;;;;;;;17.20;67.00;;;;;;4988273;28;19914;-71
2023/06/05 09:20:59;;;;;;;;;;;17.20;66.80;;;;;;4989624;28;19995;-71
2023/06/05 09:23:28;;;;;;;;;;;17.30;66.60;;;;;;4986264;28;20452;-70
2023/06/05 09:25:58;;;;;;;;;;;17.30;66.50;;;;;;4988055;28;19913;-71
2023/06/05 09:31:42;;;;;;;;;;;17.40;66.50;;;;;;4987451;28;19990;-70
2023/06/05 09:34:08;;;;;;;;;;;17.50;66.40;;;;;;4986133;28;20032;-70
2023/06/05 09:37:15;;;;;;;;;;;17.50;66.30;;;;;;4987985;28;20000;-71
2023/06/05 09:40:05;;;;;;;;;;;17.60;66.30;;;;;;4926999;29;20360;-71
2023/06/05 09:42:54;;;;;;;;;;;17.60;66.40;;;;;;4979534;28;19999;-71
2023/06/05 09:48:25;;;;;;;;;;;17.80;66.20;;;;;;5002199;28;20497;-71
2023/06/05 09:51:10;;;;;;;;;;;17.80;66.00;;;;;;4976017;28;19952;-71
2023/06/05 09:54:00;;;;;;;;;;;17.90;66.10;;;;;;4983208;28;19925;-71
2023/06/05 09:57:04;;;;;;;;;;;18.00;66.00;;;;;;4982708;28;19942;-71
2023/06/05 09:59:47;;;;;;;;;;;18.00;65.90;;;;;;4965140;28;19914;-71
2023/06/05 10:05:15;;;;;;;;;;;18.20;65.60;;;;;;4957180;28;19921;-71
2023/06/05 10:07:41;;;;;;;;;;;18.30;65.50;;;;;;4961801;28;19919;-71
2023/06/05 10:13:05;;;;;;;;;;;18.40;65.40;;;;;;4981733;28;19936;-71
2023/06/05 10:18:41;;;;;;;;;;;18.60;65.40;;;;;;4966893;28;20051;-71
2023/06/05 10:21:48;;;;;;;;;;;18.70;65.20;;;;;;4971305;28;19924;-70
2023/06/05 10:27:46;;;;;;;;;;;18.90;65.30;;;;;;4935977;28;20001;-70
2023/06/05 10:30:36;;;;;;;;;;;19.00;65.20;;;;;;4944256;29;19918;-70
2023/06/05 10:33:12;;;;;;;;;;;19.10;65.30;;;;;;4935882;28;19918;-71
2023/06/05 10:36:00;;;;;;;;;;;19.10;65.80;;;;;;4940270;29;19930;-71
2023/06/05 10:38:26;;;;;;;;;;;19.30;65.20;;;;;;4947008;28;19918;-71
2023/06/05 10:44:13;;;;;;;;;;;19.40;65.20;;;;;;4975038;28;19925;-70
2023/06/05 10:46:45;;;;;;;;;;;19.50;65.50;;;;;;4985463;28;20043;-71
2023/06/05 10:49:17;;;;;;;;;;;19.70;65.00;;;;;;4983656;28;20536;-70
2023/06/05 10:52:04;;;;;;;;;;;19.80;65.20;;;;;;4986088;28;19984;-70
2023/06/05 10:54:34;;;;;;;;;;;19.90;65.20;;;;;;4985787;28;20016;-70
2023/06/05 10:57:09;;;;;;;;;;;20.00;65.10;;;;;;4993763;28;19914;-70
2023/06/05 10:59:39;;;;;;;;;;;20.10;64.80;;;;;;4984912;28;19925;-70
2023/06/05 11:02:19;;;;;;;;;;;20.20;64.80;;;;;;4985879;28;20279;-71
2023/06/05 11:04:55;;;;;;;;;;;20.40;64.80;;;;;;4985810;28;20298;-70
2023/06/05 11:07:28;;;;;;;;;;;20.50;64.80;;;;;;4981051;28;19913;-70
2023/06/05 11:10:11;;;;;;;;;;;20.60;64.90;;;;;;4984743;28;19924;-70
2023/06/05 11:13:13;;;;;;;;;;;20.70;64.70;;;;;;4986112;28;19956;-70
2023/06/05 11:16:14;;;;;;;;;;;20.90;64.50;;;;;;4985834;28;19967;-70
2023/06/05 11:18:49;;;;;;;;;;;21.00;64.30;;;;;;4962891;28;19921;-70
2023/06/05 11:21:18;;;;;;;;;;;21.10;64.20;;;;;;4964665;28;19913;-69
2023/06/05 11:24:12;;;;;;;;;;;21.30;64.10;;;;;;4984947;28;19929;-70
2023/06/05 11:26:44;;;;;;;;;;;21.40;64.20;;;;;;4976211;28;19913;-70
2023/06/05 11:29:22;;;;;;;;;;;21.50;64.00;;;;;;4985816;28;19910;-70
2023/06/05 11:31:57;;;;;;;;;;;21.60;63.90;;;;;;4982548;28;19920;-70
2023/06/05 11:34:22;;;;;;;;;;;21.60;63.60;;;;;;4977167;28;20509;-70
2023/06/05 11:37:18;;;;;;;;;;;21.70;63.60;;;;;;4985537;28;19944;-70
2023/06/05 11:39:43;;;;;;;;;;;21.80;63.70;;;;;;4996844;28;19914;-70
2023/06/05 11:42:35;;;;;;;;;;;21.90;63.50;;;;;;4985662;28;19914;-70
2023/06/05 11:45:22;;;;;;;;;;;22.00;63.30;;;;;;4966145;28;20003;-70
2023/06/05 11:47:48;;;;;;;;;;;22.10;63.30;;;;;;4979052;28;20464;-70
2023/06/05 11:50:21;;;;;;;;;;;22.30;63.10;;;;;;4983222;28;19914;-70
2023/06/05 11:53:12;;;;;;;;;;;22.30;63.20;;;;;;4975983;28;19910;-70
2023/06/05 11:58:28;;;;;;;;;;;22.40;63.70;;;;;;4985021;28;19992;-70
2023/06/05 12:04:28;;;;;;;;;;;22.60;63.00;;;;;;4981828;28;20347;-70
2023/06/05 12:06:57;;;;;;;;;;;22.70;62.80;;;;;;4985288;28;19921;-70
2023/06/05 12:09:22;;;;;;;;;;;22.80;62.80;;;;;;4982544;28;19961;-70
2023/06/05 12:12:07;;;;;;;;;;;22.90;62.80;;;;;;4982286;28;20452;-69
2023/06/05 12:14:38;;;;;;;;;;;22.90;62.60;;;;;;4985268;28;20602;-70
2023/06/05 12:17:22;;;;;;;;;;;23.00;62.40;;;;;;4981667;28;20339;-70
2023/06/05 12:20:04;;;;;;;;;;;23.10;62.70;;;;;;4988658;28;19921;-70
2023/06/05 12:22:35;;;;;;;;;;;23.10;62.30;;;;;;4986227;28;19922;-70
2023/06/05 12:25:23;;;;;;;;;;;23.20;62.20;;;;;;4982430;28;20244;-70
2023/06/05 12:28:45;;;;;;;;;;;23.30;62.20;;;;;;4976028;28;19920;-70
2023/06/05 12:31:29;;;;;;;;;;;23.40;62.30;;;;;;4962113;28;19914;-70
2023/06/05 12:33:54;;;;;;;;;;;23.50;62.20;;;;;;4962989;28;19917;-70
2023/06/05 12:36:20;;;;;;;;;;;23.60;62.10;;;;;;4976268;28;19918;-70
2023/06/05 12:38:55;;;;;;;;;;;23.60;61.90;;;;;;4985204;28;19960;-70
2023/06/05 12:41:48;;;;;;;;;;;23.70;61.90;;;;;;4985169;28;20016;-70
2023/06/05 12:44:14;;;;;;;;;;;23.70;61.80;;;;;;4979755;28;19959;-70
2023/06/05 12:47:03;;;;;;;;;;;23.80;61.80;;;;;;4984111;28;20305;-70
2023/06/05 12:49:49;;;;;;;;;;;23.90;61.70;;;;;;4981938;28;19914;-70
2023/06/05 12:52:25;;;;;;;;;;;23.90;61.70;;;;;;4983728;28;20725;-70
2023/06/05 12:55:31;;;;;;;;;;;24.00;61.70;;;;;;4986770;28;19953;-70
2023/06/05 12:57:55;;;;;;;;;;;24.10;61.50;;;;;;4987275;28;19913;-70
2023/06/05 13:00:26;;;;;;;;;;;24.20;61.60;;;;;;4990895;28;19914;-70
2023/06/05 13:09:13;;;;;;;;;;;24.40;61.30;;;;;;5042238;28;19920;-70
2023/06/05 13:12:17;;;;;;;;;;;24.50;61.10;;;;;;5045716;28;19913;-69
2023/06/05 13:15:10;;;;;;;;;;;24.50;61.20;;;;;;4969220;28;20640;-69
2023/06/05 13:17:38;;;;;;;;;;;24.50;61.10;;;;;;5043529;28;20508;-69
2023/06/05 13:23:05;;;;;;;;;;;24.70;60.90;;;;;;5046490;28;20390;-70
2023/06/05 13:25:30;;;;;;;;;;;24.70;60.80;;;;;;5046146;28;19913;-70
2023/06/05 13:27:56;;;;;;;;;;;24.80;60.90;;;;;;5048118;28;19936;-69
2023/06/05 13:30:21;;;;;;;;;;;24.80;60.90;;;;;;5000168;28;20329;-70
2023/06/05 13:32:54;;;;;;;;;;;24.90;60.50;;;;;;4981120;28;19956;-70
2023/06/05 13:35:31;;;;;;;;;;;24.90;60.80;;;;;;4986579;28;19928;-70
2023/06/05 13:38:06;;;;;;;;;;;25.00;60.60;;;;;;4986382;28;19909;-70
2023/06/05 13:40:34;;;;;;;;;;;25.10;60.40;;;;;;4994413;28;19910;-70
2023/06/05 13:43:18;;;;;;;;;;;25.10;60.20;;;;;;4986063;28;19914;-70
2023/06/05 13:45:53;;;;;;;;;;;25.20;60.10;;;;;;4985769;28;19914;-70
2023/06/05 13:48:19;;;;;;;;;;;25.20;59.80;;;;;;4986392;28;19914;-70
2023/06/05 13:51:09;;;;;;;;;;;25.30;59.90;;;;;;4986505;28;19953;-70
2023/06/05 13:54:14;;;;;;;;;;;25.30;60.10;;;;;;4979419;28;19918;-70
2023/06/05 13:56:51;;;;;;;;;;;25.40;60.00;;;;;;4943281;28;19919;-70
2023/06/05 13:59:22;;;;;;;;;;;25.50;59.60;;;;;;4942393;29;19915;-70
2023/06/05 14:01:48;;;;;;;;;;;25.50;59.50;;;;;;4920048;29;19921;-70
2023/06/05 14:04:20;;;;;;;;;;;25.60;60.00;;;;;;4928592;28;19914;-70
2023/06/05 14:07:04;;;;;;;;;;;25.60;59.40;;;;;;4928961;29;19914;-70
2023/06/05 14:09:29;;;;;;;;;;;25.60;59.60;;;;;;4925861;29;20405;-70
2023/06/05 14:11:56;;;;;;;;;;;25.70;59.60;;;;;;4928400;29;19915;-70
2023/06/05 14:14:22;;;;;;;;;;;25.80;59.70;;;;;;4925758;29;19915;-70
2023/06/05 14:16:53;;;;;;;;;;;25.80;59.30;;;;;;4934143;29;20598;-70
2023/06/05 14:19:30;;;;;;;;;;;25.90;59.60;;;;;;4933955;29;20410;-70
2023/06/05 14:21:56;;;;;;;;;;;26.00;59.30;;;;;;4934113;29;19911;-70
2023/06/05 14:24:22;;;;;;;;;;;26.10;59.20;;;;;;4940459;29;19969;-70
2023/06/05 14:27:18;;;;;;;;;;;26.10;59.20;;;;;;4930787;29;19956;-70
2023/06/05 14:29:59;;;;;;;;;;;26.20;58.90;;;;;;4942577;28;19922;-70
2023/06/05 14:32:24;;;;;;;;;;;26.20;58.90;;;;;;4977017;28;20366;-70
2023/06/05 14:34:53;;;;;;;;;;;26.30;58.80;;;;;;4982021;28;19914;-70
2023/06/05 14:37:36;;;;;;;;;;;26.30;58.70;;;;;;4985567;28;19953;-70
2023/06/05 14:40:09;;;;;;;;;;;26.40;58.30;;;;;;4983992;28;20504;-70
2023/06/05 14:42:40;;;;;;;;;;;26.50;58.30;;;;;;4983923;28;19918;-70
2023/06/05 14:45:06;;;;;;;;;;;26.60;58.70;;;;;;4980664;28;19910;-70
2023/06/05 14:48:03;;;;;;;;;;;26.60;58.10;;;;;;4983596;28;19910;-70
2023/06/05 14:50:34;;;;;;;;;;;26.80;57.70;;;;;;4983540;28;19920;-70
2023/06/05 14:53:06;;;;;;;;;;;26.90;57.50;;;;;;4996350;28;19917;-70
2023/06/05 14:55:31;;;;;;;;;;;27.10;57.30;;;;;;4981839;28;19925;-70
2023/06/05 14:58:12;;;;;;;;;;;27.20;57.40;;;;;;4983588;28;20601;-69
2023/06/05 15:00:48;;;;;;;;;;;27.30;56.90;;;;;;4978321;28;19914;-70
2023/06/05 15:03:14;;;;;;;;;;;27.50;56.70;;;;;;4970661;28;19910;-70
2023/06/05 15:09:14;;;;;;;;;;;27.80;56.30;;;;;;4981935;28;19921;-70
2023/06/05 15:14:49;;;;;;;;;;;28.10;55.80;;;;;;4984812;28;19917;-70
2023/06/05 15:17:15;;;;;;;;;;;28.30;55.50;;;;;;4982741;28;20278;-70